sensor_id;sensor_type;location;lat;lon;timestamp;temperature;humidity
21495;DHT22;10909;53.590;10.054;2022-07-29T00:00:05;18.70;53.90
21495;DHT22;10909;53.590;10.054;2022-07-29T00:02:31;18.60;54.10
21495;DHT22;10909;53.590;10.054;2022-07-29T00:04:57;18.60;54.00
21495;DHT22;10909;53.590;10.054;2022-07-29T00:07:23;18.60;54.10
21495;DHT22;10909;53.590;10.054;2022-07-29T00:09:49;18.60;54.10
21495;DHT22;10909;53.590;10.054;2022-07-29T00:12:15;18.50;54.00
21495;DHT22;10909;53.590;10.054;2022-07-29T00:14:40;18.50;54.10
21495;DHT22;10909;53.590;10.054;2022-07-29T00:17:06;18.50;54.20
21495;DHT22;10909;53.590;10.054;2022-07-29T00:19:31;18.50;54.30
21495;DHT22;10909;53.590;10.054;2022-07-29T00:21:57;18.50;54.40
21495;DHT22;10909;53.590;10.054;2022-07-29T00:24:23;18.40;54.30
21495;DHT22;10909;53.590;10.054;2022-07-29T00:26:48;18.40;54.40
21495;DHT22;10909;53.590;10.054;2022-07-29T00:29:14;18.40;54.50
21495;DHT22;10909;53.590;10.054;2022-07-29T00:31:39;18.40;54.50
21495;DHT22;10909;53.590;10.054;2022-07-29T00:34:05;18.40;54.50
21495;DHT22;10909;53.590;10.054;2022-07-29T00:36:50;18.30;54.50
21495;DHT22;10909;53.590;10.054;2022-07-29T00:39:17;18.30;54.50
21495;DHT22;10909;53.590;10.054;2022-07-29T00:41:42;18.30;54.60
21495;DHT22;10909;53.590;10.054;2022-07-29T00:44:08;18.30;54.70
21495;DHT22;10909;53.590;10.054;2022-07-29T00:46:34;18.30;54.80
21495;DHT22;10909;53.590;10.054;2022-07-29T00:49:00;18.20;54.80
21495;DHT22;10909;53.590;10.054;2022-07-29T00:51:27;18.20;54.70
21495;DHT22;10909;53.590;10.054;2022-07-29T00:53:53;18.20;55.40
21495;DHT22;10909;53.590;10.054;2022-07-29T00:56:19;18.20;54.90
21495;DHT22;10909;53.590;10.054;2022-07-29T00:58:46;18.20;54.90
21495;DHT22;10909;53.590;10.054;2022-07-29T01:01:12;18.10;55.00
21495;DHT22;10909;53.590;10.054;2022-07-29T01:03:38;18.10;55.00
21495;DHT22;10909;53.590;10.054;2022-07-29T01:06:07;18.10;55.00
21495;DHT22;10909;53.590;10.054;2022-07-29T01:08:32;18.10;55.00
21495;DHT22;10909;53.590;10.054;2022-07-29T01:11:00;18.10;55.00
21495;DHT22;10909;53.590;10.054;2022-07-29T01:13:27;18.00;55.00
21495;DHT22;10909;53.590;10.054;2022-07-29T01:15:57;18.00;55.20
21495;DHT22;10909;53.590;10.054;2022-07-29T01:18:41;18.00;55.20
21495;DHT22;10909;53.590;10.054;2022-07-29T01:24:20;17.90;55.50
21495;DHT22;10909;53.590;10.054;2022-07-29T01:26:55;17.90;55.60
21495;DHT22;10909;53.590;10.054;2022-07-29T01:32:10;17.80;55.50
21495;DHT22;10909;53.590;10.054;2022-07-29T01:37:18;17.70;55.70
21495;DHT22;10909;53.590;10.054;2022-07-29T01:39:47;17.70;55.70
21495;DHT22;10909;53.590;10.054;2022-07-29T01:42:32;17.70;55.70
21495;DHT22;10909;53.590;10.054;2022-07-29T01:47:33;17.70;55.80
21495;DHT22;10909;53.590;10.054;2022-07-29T01:50:04;17.70;55.90
21495;DHT22;10909;53.590;10.054;2022-07-29T01:52:58;17.70;56.00
21495;DHT22;10909;53.590;10.054;2022-07-29T01:55:33;17.70;56.00
21495;DHT22;10909;53.590;10.054;2022-07-29T01:58:01;17.70;56.00
21495;DHT22;10909;53.590;10.054;2022-07-29T02:00:29;17.70;56.20
21495;DHT22;10909;53.590;10.054;2022-07-29T02:02:57;17.70;56.30
21495;DHT22;10909;53.590;10.054;2022-07-29T02:05:25;17.60;56.20
21495;DHT22;10909;53.590;10.054;2022-07-29T02:07:56;17.60;56.20
21495;DHT22;10909;53.590;10.054;2022-07-29T02:10:27;17.60;56.30
21495;DHT22;10909;53.590;10.054;2022-07-29T02:12:55;17.60;56.40
21495;DHT22;10909;53.590;10.054;2022-07-29T02:15:26;17.60;56.40
21495;DHT22;10909;53.590;10.054;2022-07-29T02:18:00;17.60;56.40
21495;DHT22;10909;53.590;10.054;2022-07-29T02:20:28;17.70;56.60
21495;DHT22;10909;53.590;10.054;2022-07-29T02:22:54;17.60;56.70
21495;DHT22;10909;53.590;10.054;2022-07-29T02:25:22;17.60;56.60
21495;DHT22;10909;53.590;10.054;2022-07-29T02:27:50;17.60;56.70
21495;DHT22;10909;53.590;10.054;2022-07-29T02:30:18;17.60;56.70
21495;DHT22;10909;53.590;10.054;2022-07-29T02:32:46;17.60;57.30
21495;DHT22;10909;53.590;10.054;2022-07-29T02:35:14;17.60;56.90
21495;DHT22;10909;53.590;10.054;2022-07-29T02:37:41;17.60;56.80
21495;DHT22;10909;53.590;10.054;2022-07-29T02:40:12;17.60;57.00
21495;DHT22;10909;53.590;10.054;2022-07-29T02:42:41;17.60;56.90
21495;DHT22;10909;53.590;10.054;2022-07-29T02:45:08;17.60;57.10
21495;DHT22;10909;53.590;10.054;2022-07-29T02:47:42;17.50;57.10
21495;DHT22;10909;53.590;10.054;2022-07-29T02:50:27;17.50;57.20
21495;DHT22;10909;53.590;10.054;2022-07-29T02:53:05;17.50;57.30
21495;DHT22;10909;53.590;10.054;2022-07-29T02:58:49;17.50;57.30
21495;DHT22;10909;53.590;10.054;2022-07-29T03:00:49;17.50;57.40
21495;DHT22;10909;53.590;10.054;2022-07-29T03:03:18;17.50;57.50
21495;DHT22;10909;53.590;10.054;2022-07-29T03:05:44;17.40;57.40
21495;DHT22;10909;53.590;10.054;2022-07-29T03:08:11;17.40;57.60
21495;DHT22;10909;53.590;10.054;2022-07-29T03:10:43;17.40;57.50
21495;DHT22;10909;53.590;10.054;2022-07-29T03:13:09;17.40;57.60
21495;DHT22;10909;53.590;10.054;2022-07-29T03:15:35;17.40;57.60
21495;DHT22;10909;53.590;10.054;2022-07-29T03:18:02;17.40;57.70
21495;DHT22;10909;53.590;10.054;2022-07-29T03:20:28;17.40;57.60
21495;DHT22;10909;53.590;10.054;2022-07-29T03:22:54;17.40;57.70
21495;DHT22;10909;53.590;10.054;2022-07-29T03:25:20;17.40;57.80
21495;DHT22;10909;53.590;10.054;2022-07-29T03:27:46;17.40;57.80
21495;DHT22;10909;53.590;10.054;2022-07-29T03:30:13;17.40;58.40
21495;DHT22;10909;53.590;10.054;2022-07-29T03:32:40;17.40;57.80
21495;DHT22;10909;53.590;10.054;2022-07-29T03:35:06;17.40;58.00
21495;DHT22;10909;53.590;10.054;2022-07-29T03:37:32;17.40;58.00
21495;DHT22;10909;53.590;10.054;2022-07-29T03:40:01;17.50;58.00
21495;DHT22;10909;53.590;10.054;2022-07-29T03:42:31;17.40;58.00
21495;DHT22;10909;53.590;10.054;2022-07-29T03:44:57;17.40;58.10
21495;DHT22;10909;53.590;10.054;2022-07-29T03:47:26;17.40;58.10
21495;DHT22;10909;53.590;10.054;2022-07-29T03:49:56;17.50;58.20
21495;DHT22;10909;53.590;10.054;2022-07-29T03:52:22;17.40;58.20
21495;DHT22;10909;53.590;10.054;2022-07-29T03:54:48;17.50;58.30
21495;DHT22;10909;53.590;10.054;2022-07-29T03:57:15;17.50;58.30
21495;DHT22;10909;53.590;10.054;2022-07-29T03:59:41;17.40;58.20
21495;DHT22;10909;53.590;10.054;2022-07-29T04:02:09;17.40;58.20
21495;DHT22;10909;53.590;10.054;2022-07-29T04:04:36;17.40;58.40
21495;DHT22;10909;53.590;10.054;2022-07-29T04:07:03;17.40;58.40
21495;DHT22;10909;53.590;10.054;2022-07-29T04:09:29;17.40;58.40
21495;DHT22;10909;53.590;10.054;2022-07-29T04:11:54;17.40;58.40
21495;DHT22;10909;53.590;10.054;2022-07-29T04:14:20;17.40;58.50
21495;DHT22;10909;53.590;10.054;2022-07-29T04:16:46;17.40;58.50
21495;DHT22;10909;53.590;10.054;2022-07-29T04:19:12;17.40;58.50
21495;DHT22;10909;53.590;10.054;2022-07-29T04:21:41;17.40;58.50
21495;DHT22;10909;53.590;10.054;2022-07-29T04:24:10;17.40;58.50
21495;DHT22;10909;53.590;10.054;2022-07-29T04:26:35;17.50;58.60
21495;DHT22;10909;53.590;10.054;2022-07-29T04:29:01;17.50;58.60
21495;DHT22;10909;53.590;10.054;2022-07-29T04:31:27;17.50;58.60
21495;DHT22;10909;53.590;10.054;2022-07-29T04:33:52;17.50;58.60
21495;DHT22;10909;53.590;10.054;2022-07-29T04:36:18;17.50;58.60
21495;DHT22;10909;53.590;10.054;2022-07-29T04:38:44;17.50;58.90
21495;DHT22;10909;53.590;10.054;2022-07-29T04:41:09;17.50;58.60
21495;DHT22;10909;53.590;10.054;2022-07-29T04:43:35;17.60;58.60
21495;DHT22;10909;53.590;10.054;2022-07-29T04:46:02;17.60;58.70
21495;DHT22;10909;53.590;10.054;2022-07-29T04:48:32;17.60;58.70
21495;DHT22;10909;53.590;10.054;2022-07-29T04:50:58;17.60;58.70
21495;DHT22;10909;53.590;10.054;2022-07-29T04:53:24;17.60;58.80
21495;DHT22;10909;53.590;10.054;2022-07-29T04:55:50;17.70;59.00
21495;DHT22;10909;53.590;10.054;2022-07-29T04:58:16;17.70;59.00
21495;DHT22;10909;53.590;10.054;2022-07-29T05:00:42;17.80;59.00
21495;DHT22;10909;53.590;10.054;2022-07-29T05:03:07;17.90;59.00
21495;DHT22;10909;53.590;10.054;2022-07-29T05:05:33;18.00;59.00
21495;DHT22;10909;53.590;10.054;2022-07-29T05:07:58;18.10;58.80
21495;DHT22;10909;53.590;10.054;2022-07-29T05:10:24;18.10;58.80
21495;DHT22;10909;53.590;10.054;2022-07-29T05:12:50;18.20;58.80
21495;DHT22;10909;53.590;10.054;2022-07-29T05:15:16;18.20;58.70
21495;DHT22;10909;53.590;10.054;2022-07-29T05:17:43;18.30;58.70
21495;DHT22;10909;53.590;10.054;2022-07-29T05:20:09;18.30;58.60
21495;DHT22;10909;53.590;10.054;2022-07-29T05:22:34;18.40;58.60
21495;DHT22;10909;53.590;10.054;2022-07-29T05:25:01;18.40;58.50
21495;DHT22;10909;53.590;10.054;2022-07-29T05:27:27;18.50;58.50
21495;DHT22;10909;53.590;10.054;2022-07-29T05:29:53;18.50;58.50
21495;DHT22;10909;53.590;10.054;2022-07-29T05:32:18;18.60;58.50
21495;DHT22;10909;53.590;10.054;2022-07-29T05:34:44;18.60;58.50
21495;DHT22;10909;53.590;10.054;2022-07-29T05:37:10;18.70;58.50
21495;DHT22;10909;53.590;10.054;2022-07-29T05:39:35;18.80;58.40
21495;DHT22;10909;53.590;10.054;2022-07-29T05:42:01;18.80;58.40
21495;DHT22;10909;53.590;10.054;2022-07-29T05:44:27;18.80;58.40
21495;DHT22;10909;53.590;10.054;2022-07-29T05:46:53;18.90;58.50
21495;DHT22;10909;53.590;10.054;2022-07-29T05:49:19;18.90;58.40
21495;DHT22;10909;53.590;10.054;2022-07-29T05:51:44;19.00;58.50
21495;DHT22;10909;53.590;10.054;2022-07-29T05:54:10;19.00;58.40
21495;DHT22;10909;53.590;10.054;2022-07-29T05:56:36;19.10;58.40
21495;DHT22;10909;53.590;10.054;2022-07-29T05:59:02;19.20;58.40
21495;DHT22;10909;53.590;10.054;2022-07-29T06:01:28;19.20;58.40
21495;DHT22;10909;53.590;10.054;2022-07-29T06:03:54;19.30;58.50
21495;DHT22;10909;53.590;10.054;2022-07-29T06:06:26;19.30;58.40
21495;DHT22;10909;53.590;10.054;2022-07-29T06:08:52;19.30;58.30
21495;DHT22;10909;53.590;10.054;2022-07-29T06:11:18;19.50;58.40
21495;DHT22;10909;53.590;10.054;2022-07-29T06:13:44;19.60;58.30
21495;DHT22;10909;53.590;10.054;2022-07-29T06:16:09;19.70;58.30
21495;DHT22;10909;53.590;10.054;2022-07-29T06:18:35;19.70;58.10
21495;DHT22;10909;53.590;10.054;2022-07-29T06:21:00;19.80;58.20
21495;DHT22;10909;53.590;10.054;2022-07-29T06:23:26;19.80;58.20
21495;DHT22;10909;53.590;10.054;2022-07-29T06:25:52;19.90;58.20
21495;DHT22;10909;53.590;10.054;2022-07-29T06:28:18;20.00;58.20
21495;DHT22;10909;53.590;10.054;2022-07-29T06:30:43;20.00;58.10
21495;DHT22;10909;53.590;10.054;2022-07-29T06:33:09;20.10;58.10
21495;DHT22;10909;53.590;10.054;2022-07-29T06:35:35;20.20;58.00
21495;DHT22;10909;53.590;10.054;2022-07-29T06:38:02;20.30;58.00
21495;DHT22;10909;53.590;10.054;2022-07-29T06:40:28;20.40;58.00
21495;DHT22;10909;53.590;10.054;2022-07-29T06:43:12;20.40;57.90
21495;DHT22;10909;53.590;10.054;2022-07-29T06:45:38;20.50;57.80
21495;DHT22;10909;53.590;10.054;2022-07-29T06:48:06;20.60;57.80
21495;DHT22;10909;53.590;10.054;2022-07-29T06:50:32;20.60;57.70
21495;DHT22;10909;53.590;10.054;2022-07-29T06:52:57;20.80;57.50
21495;DHT22;10909;53.590;10.054;2022-07-29T06:55:23;20.80;57.50
21495;DHT22;10909;53.590;10.054;2022-07-29T06:57:49;20.90;57.30
21495;DHT22;10909;53.590;10.054;2022-07-29T07:00:15;21.00;57.20
21495;DHT22;10909;53.590;10.054;2022-07-29T07:02:41;21.00;57.10
21495;DHT22;10909;53.590;10.054;2022-07-29T07:05:07;21.10;57.00
21495;DHT22;10909;53.590;10.054;2022-07-29T07:07:32;21.20;56.60
21495;DHT22;10909;53.590;10.054;2022-07-29T07:09:58;21.20;56.70
21495;DHT22;10909;53.590;10.054;2022-07-29T07:12:23;21.20;56.50
21495;DHT22;10909;53.590;10.054;2022-07-29T07:14:49;21.30;56.60
21495;DHT22;10909;53.590;10.054;2022-07-29T07:17:15;21.30;56.50
21495;DHT22;10909;53.590;10.054;2022-07-29T07:19:40;21.40;56.30
21495;DHT22;10909;53.590;10.054;2022-07-29T07:22:06;21.40;56.40
21495;DHT22;10909;53.590;10.054;2022-07-29T07:24:32;21.50;56.40
21495;DHT22;10909;53.590;10.054;2022-07-29T07:26:57;21.50;56.40
21495;DHT22;10909;53.590;10.054;2022-07-29T07:29:23;21.50;56.20
21495;DHT22;10909;53.590;10.054;2022-07-29T07:31:48;21.60;56.10
21495;DHT22;10909;53.590;10.054;2022-07-29T07:34:14;21.60;56.10
21495;DHT22;10909;53.590;10.054;2022-07-29T07:36:40;21.60;55.90
21495;DHT22;10909;53.590;10.054;2022-07-29T07:39:05;21.70;55.70
21495;DHT22;10909;53.590;10.054;2022-07-29T07:41:31;21.70;55.80
21495;DHT22;10909;53.590;10.054;2022-07-29T07:43:57;21.70;55.80
21495;DHT22;10909;53.590;10.054;2022-07-29T07:46:22;21.80;55.90
21495;DHT22;10909;53.590;10.054;2022-07-29T07:48:48;21.80;55.90
21495;DHT22;10909;53.590;10.054;2022-07-29T07:51:13;21.90;55.80
21495;DHT22;10909;53.590;10.054;2022-07-29T07:53:39;21.90;55.70
21495;DHT22;10909;53.590;10.054;2022-07-29T07:56:05;21.90;55.70
21495;DHT22;10909;53.590;10.054;2022-07-29T07:58:31;22.00;55.70
21495;DHT22;10909;53.590;10.054;2022-07-29T08:00:57;22.00;55.60
21495;DHT22;10909;53.590;10.054;2022-07-29T08:03:23;22.10;55.70
21495;DHT22;10909;53.590;10.054;2022-07-29T08:05:48;22.10;55.80
21495;DHT22;10909;53.590;10.054;2022-07-29T08:08:16;22.20;55.60
21495;DHT22;10909;53.590;10.054;2022-07-29T08:10:41;22.20;55.60
21495;DHT22;10909;53.590;10.054;2022-07-29T08:13:23;22.30;55.60
21495;DHT22;10909;53.590;10.054;2022-07-29T08:15:50;22.40;55.40
21495;DHT22;10909;53.590;10.054;2022-07-29T08:18:37;22.50;55.30
21495;DHT22;10909;53.590;10.054;2022-07-29T08:21:06;22.60;55.90
21495;DHT22;10909;53.590;10.054;2022-07-29T08:23:31;22.60;55.00
21495;DHT22;10909;53.590;10.054;2022-07-29T08:26:07;22.70;55.10
21495;DHT22;10909;53.590;10.054;2022-07-29T08:28:40;22.80;55.00
21495;DHT22;10909;53.590;10.054;2022-07-29T08:31:06;22.80;55.00
21495;DHT22;10909;53.590;10.054;2022-07-29T08:33:32;22.90;54.90
21495;DHT22;10909;53.590;10.054;2022-07-29T08:35:58;23.00;54.70
21495;DHT22;10909;53.590;10.054;2022-07-29T08:38:24;23.00;54.70
21495;DHT22;10909;53.590;10.054;2022-07-29T08:40:52;23.10;54.80
21495;DHT22;10909;53.590;10.054;2022-07-29T08:43:18;23.20;54.70
21495;DHT22;10909;53.590;10.054;2022-07-29T08:45:48;23.30;54.40
21495;DHT22;10909;53.590;10.054;2022-07-29T08:48:19;23.40;54.30
21495;DHT22;10909;53.590;10.054;2022-07-29T08:50:47;23.40;54.10
21495;DHT22;10909;53.590;10.054;2022-07-29T08:53:17;23.50;54.10
21495;DHT22;10909;53.590;10.054;2022-07-29T08:55:44;23.50;53.90
21495;DHT22;10909;53.590;10.054;2022-07-29T08:58:10;23.60;53.70
21495;DHT22;10909;53.590;10.054;2022-07-29T09:00:37;23.70;53.40
21495;DHT22;10909;53.590;10.054;2022-07-29T09:03:06;23.70;53.40
21495;DHT22;10909;53.590;10.054;2022-07-29T09:05:34;23.80;53.20
21495;DHT22;10909;53.590;10.054;2022-07-29T09:08:00;23.80;53.40
21495;DHT22;10909;53.590;10.054;2022-07-29T09:10:26;23.90;53.40
21495;DHT22;10909;53.590;10.054;2022-07-29T09:12:54;24.00;53.10
21495;DHT22;10909;53.590;10.054;2022-07-29T09:15:20;24.10;53.00
21495;DHT22;10909;53.590;10.054;2022-07-29T09:17:47;24.20;53.10
21495;DHT22;10909;53.590;10.054;2022-07-29T09:20:21;24.30;53.00
21495;DHT22;10909;53.590;10.054;2022-07-29T09:22:48;24.30;52.30
21495;DHT22;10909;53.590;10.054;2022-07-29T09:25:38;24.40;52.30
21495;DHT22;10909;53.590;10.054;2022-07-29T09:28:15;24.50;52.00
21495;DHT22;10909;53.590;10.054;2022-07-29T09:30:54;24.60;52.10
21495;DHT22;10909;53.590;10.054;2022-07-29T09:33:22;24.70;51.20
21495;DHT22;10909;53.590;10.054;2022-07-29T09:36:08;24.80;52.20
21495;DHT22;10909;53.590;10.054;2022-07-29T09:38:35;24.90;50.50
21495;DHT22;10909;53.590;10.054;2022-07-29T09:41:05;24.90;51.70
21495;DHT22;10909;53.590;10.054;2022-07-29T09:43:31;25.00;51.30
21495;DHT22;10909;53.590;10.054;2022-07-29T09:46:12;25.10;51.70
21495;DHT22;10909;53.590;10.054;2022-07-29T09:48:38;25.20;51.20
21495;DHT22;10909;53.590;10.054;2022-07-29T09:51:17;25.30;51.80
21495;DHT22;10909;53.590;10.054;2022-07-29T09:53:43;25.50;51.10
21495;DHT22;10909;53.590;10.054;2022-07-29T09:56:08;25.50;50.20
21495;DHT22;10909;53.590;10.054;2022-07-29T09:58:36;25.60;50.30
21495;DHT22;10909;53.590;10.054;2022-07-29T10:01:02;25.60;50.30
21495;DHT22;10909;53.590;10.054;2022-07-29T10:03:50;25.70;50.30
21495;DHT22;10909;53.590;10.054;2022-07-29T10:06:16;25.80;48.80
21495;DHT22;10909;53.590;10.054;2022-07-29T10:09:07;25.80;50.00
21495;DHT22;10909;53.590;10.054;2022-07-29T10:11:33;25.90;48.90
21495;DHT22;10909;53.590;10.054;2022-07-29T10:14:01;25.90;49.70
21495;DHT22;10909;53.590;10.054;2022-07-29T10:16:28;26.00;50.30
21495;DHT22;10909;53.590;10.054;2022-07-29T10:18:58;26.10;49.80
21495;DHT22;10909;53.590;10.054;2022-07-29T10:21:25;26.20;49.20
21495;DHT22;10909;53.590;10.054;2022-07-29T10:23:52;26.20;49.10
21495;DHT22;10909;53.590;10.054;2022-07-29T10:26:19;26.30;49.00
21495;DHT22;10909;53.590;10.054;2022-07-29T10:28:45;26.40;48.10
21495;DHT22;10909;53.590;10.054;2022-07-29T10:31:19;26.50;48.40
21495;DHT22;10909;53.590;10.054;2022-07-29T10:34:05;26.50;47.60
21495;DHT22;10909;53.590;10.054;2022-07-29T10:36:49;26.60;46.50
21495;DHT22;10909;53.590;10.054;2022-07-29T10:42:02;26.70;46.40
21495;DHT22;10909;53.590;10.054;2022-07-29T10:44:29;26.70;46.90
21495;DHT22;10909;53.590;10.054;2022-07-29T10:46:55;26.70;47.30
21495;DHT22;10909;53.590;10.054;2022-07-29T10:49:26;26.80;47.00
21495;DHT22;10909;53.590;10.054;2022-07-29T10:59:42;26.90;45.20
21495;DHT22;10909;53.590;10.054;2022-07-29T11:05:03;26.90;45.10
21495;DHT22;10909;53.590;10.054;2022-07-29T11:07:29;27.00;45.50
21495;DHT22;10909;53.590;10.054;2022-07-29T11:15:12;27.00;46.00
21495;DHT22;10909;53.590;10.054;2022-07-29T11:18:08;27.10;45.60
21495;DHT22;10909;53.590;10.054;2022-07-29T11:20:47;27.30;45.10
21495;DHT22;10909;53.590;10.054;2022-07-29T11:23:22;27.30;44.90
21495;DHT22;10909;53.590;10.054;2022-07-29T11:31:34;27.70;44.80
21495;DHT22;10909;53.590;10.054;2022-07-29T11:34:19;27.90;45.30
21495;DHT22;10909;53.590;10.054;2022-07-29T11:39:37;28.20;44.00
21495;DHT22;10909;53.590;10.054;2022-07-29T11:45:05;28.60;43.90
21495;DHT22;10909;53.590;10.054;2022-07-29T11:47:33;28.70;43.60
21495;DHT22;10909;53.590;10.054;2022-07-29T11:50:00;28.80;43.90
21495;DHT22;10909;53.590;10.054;2022-07-29T11:52:35;28.80;43.60
21495;DHT22;10909;53.590;10.054;2022-07-29T11:55:05;28.90;42.10
21495;DHT22;10909;53.590;10.054;2022-07-29T11:57:34;28.90;42.60
21495;DHT22;10909;53.590;10.054;2022-07-29T12:00:00;28.90;42.30
21495;DHT22;10909;53.590;10.054;2022-07-29T12:02:41;28.90;42.30
21495;DHT22;10909;53.590;10.054;2022-07-29T12:05:08;28.90;41.80
21495;DHT22;10909;53.590;10.054;2022-07-29T12:07:35;28.90;42.40
21495;DHT22;10909;53.590;10.054;2022-07-29T12:10:03;29.00;42.60
21495;DHT22;10909;53.590;10.054;2022-07-29T12:12:29;29.00;42.90
21495;DHT22;10909;53.590;10.054;2022-07-29T12:14:55;29.10;42.60
21495;DHT22;10909;53.590;10.054;2022-07-29T12:17:29;29.20;42.70
21495;DHT22;10909;53.590;10.054;2022-07-29T12:19:59;29.30;40.90
21495;DHT22;10909;53.590;10.054;2022-07-29T12:22:27;29.40;41.50
21495;DHT22;10909;53.590;10.054;2022-07-29T12:24:54;29.40;41.80
21495;DHT22;10909;53.590;10.054;2022-07-29T12:27:20;29.50;41.70
21495;DHT22;10909;53.590;10.054;2022-07-29T12:30:02;29.60;41.90
21495;DHT22;10909;53.590;10.054;2022-07-29T12:32:36;29.70;40.40
21495;DHT22;10909;53.590;10.054;2022-07-29T12:35:07;29.80;40.40
21495;DHT22;10909;53.590;10.054;2022-07-29T12:37:35;29.90;40.90
21495;DHT22;10909;53.590;10.054;2022-07-29T12:40:03;30.00;40.60
21495;DHT22;10909;53.590;10.054;2022-07-29T12:42:29;30.10;41.70
21495;DHT22;10909;53.590;10.054;2022-07-29T12:44:55;30.30;41.20
21495;DHT22;10909;53.590;10.054;2022-07-29T12:47:23;30.70;42.00
21495;DHT22;10909;53.590;10.054;2022-07-29T12:49:49;31.00;41.70
21495;DHT22;10909;53.590;10.054;2022-07-29T12:52:32;31.40;41.40
21495;DHT22;10909;53.590;10.054;2022-07-29T12:54:59;31.90;37.40
21495;DHT22;10909;53.590;10.054;2022-07-29T12:57:25;32.10;40.20
21495;DHT22;10909;53.590;10.054;2022-07-29T13:00:05;32.40;39.40
21495;DHT22;10909;53.590;10.054;2022-07-29T13:02:33;32.50;37.80
21495;DHT22;10909;53.590;10.054;2022-07-29T13:05:01;32.60;37.90
21495;DHT22;10909;53.590;10.054;2022-07-29T13:07:31;32.70;38.00
21495;DHT22;10909;53.590;10.054;2022-07-29T13:10:15;32.80;37.20
21495;DHT22;10909;53.590;10.054;2022-07-29T13:13:08;33.00;33.80
21495;DHT22;10909;53.590;10.054;2022-07-29T13:15:37;33.30;34.50
21495;DHT22;10909;53.590;10.054;2022-07-29T13:18:05;33.50;36.20
21495;DHT22;10909;53.590;10.054;2022-07-29T13:20:50;33.80;36.80
21495;DHT22;10909;53.590;10.054;2022-07-29T13:23:16;34.20;36.40
21495;DHT22;10909;53.590;10.054;2022-07-29T13:25:41;34.60;35.20
21495;DHT22;10909;53.590;10.054;2022-07-29T13:28:07;34.90;35.00
21495;DHT22;10909;53.590;10.054;2022-07-29T13:30:33;35.20;35.80
21495;DHT22;10909;53.590;10.054;2022-07-29T13:32:58;35.50;35.00
21495;DHT22;10909;53.590;10.054;2022-07-29T13:35:24;35.70;34.90
21495;DHT22;10909;53.590;10.054;2022-07-29T13:37:50;35.80;34.60
21495;DHT22;10909;53.590;10.054;2022-07-29T13:40:15;35.90;34.70
21495;DHT22;10909;53.590;10.054;2022-07-29T13:42:41;36.00;35.20
21495;DHT22;10909;53.590;10.054;2022-07-29T13:45:08;36.00;34.40
21495;DHT22;10909;53.590;10.054;2022-07-29T13:47:33;36.00;33.30
21495;DHT22;10909;53.590;10.054;2022-07-29T13:50:00;36.00;33.70
21495;DHT22;10909;53.590;10.054;2022-07-29T13:52:26;35.90;33.30
21495;DHT22;10909;53.590;10.054;2022-07-29T13:54:52;35.60;32.80
21495;DHT22;10909;53.590;10.054;2022-07-29T13:57:18;35.30;32.90
21495;DHT22;10909;53.590;10.054;2022-07-29T13:59:44;35.10;33.40
21495;DHT22;10909;53.590;10.054;2022-07-29T14:02:10;34.90;33.40
21495;DHT22;10909;53.590;10.054;2022-07-29T14:04:37;34.60;33.50
21495;DHT22;10909;53.590;10.054;2022-07-29T14:07:03;34.30;33.50
21495;DHT22;10909;53.590;10.054;2022-07-29T14:09:29;34.10;33.50
21495;DHT22;10909;53.590;10.054;2022-07-29T14:11:55;33.80;34.00
21495;DHT22;10909;53.590;10.054;2022-07-29T14:14:21;33.70;34.40
21495;DHT22;10909;53.590;10.054;2022-07-29T14:16:47;33.40;34.50
21495;DHT22;10909;53.590;10.054;2022-07-29T14:19:12;33.30;34.80
21495;DHT22;10909;53.590;10.054;2022-07-29T14:21:38;33.30;35.20
21495;DHT22;10909;53.590;10.054;2022-07-29T14:24:05;33.30;35.10
21495;DHT22;10909;53.590;10.054;2022-07-29T14:26:31;33.40;35.20
21495;DHT22;10909;53.590;10.054;2022-07-29T14:28:57;33.40;35.50
21495;DHT22;10909;53.590;10.054;2022-07-29T14:31:22;33.50;35.40
21495;DHT22;10909;53.590;10.054;2022-07-29T14:33:48;33.50;35.10
21495;DHT22;10909;53.590;10.054;2022-07-29T14:36:14;33.50;34.90
21495;DHT22;10909;53.590;10.054;2022-07-29T14:38:39;33.40;34.80
21495;DHT22;10909;53.590;10.054;2022-07-29T14:41:09;33.20;34.80
21495;DHT22;10909;53.590;10.054;2022-07-29T14:43:37;33.00;34.70
21495;DHT22;10909;53.590;10.054;2022-07-29T14:46:09;32.90;34.90
21495;DHT22;10909;53.590;10.054;2022-07-29T14:48:35;32.70;35.00
21495;DHT22;10909;53.590;10.054;2022-07-29T14:51:01;32.50;35.30
21495;DHT22;10909;53.590;10.054;2022-07-29T14:53:26;32.30;35.30
21495;DHT22;10909;53.590;10.054;2022-07-29T14:55:52;32.20;35.70
21495;DHT22;10909;53.590;10.054;2022-07-29T14:58:17;32.20;36.20
21495;DHT22;10909;53.590;10.054;2022-07-29T15:00:45;32.20;36.70
21495;DHT22;10909;53.590;10.054;2022-07-29T15:03:10;32.40;37.00
21495;DHT22;10909;53.590;10.054;2022-07-29T15:05:36;32.60;36.90
21495;DHT22;10909;53.590;10.054;2022-07-29T15:08:02;32.90;36.90
21495;DHT22;10909;53.590;10.054;2022-07-29T15:10:28;33.20;37.10
21495;DHT22;10909;53.590;10.054;2022-07-29T15:12:54;33.60;36.90
21495;DHT22;10909;53.590;10.054;2022-07-29T15:15:21;33.90;36.00
21495;DHT22;10909;53.590;10.054;2022-07-29T15:17:47;34.20;35.50
21495;DHT22;10909;53.590;10.054;2022-07-29T15:20:13;34.40;35.40
21495;DHT22;10909;53.590;10.054;2022-07-29T15:22:39;34.50;34.90
21495;DHT22;10909;53.590;10.054;2022-07-29T15:25:06;34.70;35.00
21495;DHT22;10909;53.590;10.054;2022-07-29T15:27:32;34.70;34.80
21495;DHT22;10909;53.590;10.054;2022-07-29T15:29:58;34.90;34.30
21495;DHT22;10909;53.590;10.054;2022-07-29T15:32:24;35.00;33.70
21495;DHT22;10909;53.590;10.054;2022-07-29T15:34:49;34.90;33.30
21495;DHT22;10909;53.590;10.054;2022-07-29T15:37:15;34.70;32.90
21495;DHT22;10909;53.590;10.054;2022-07-29T15:39:41;34.30;32.90
21495;DHT22;10909;53.590;10.054;2022-07-29T15:42:06;34.00;33.10
21495;DHT22;10909;53.590;10.054;2022-07-29T15:44:32;33.60;33.30
21495;DHT22;10909;53.590;10.054;2022-07-29T15:46:59;33.40;33.90
21495;DHT22;10909;53.590;10.054;2022-07-29T15:49:30;33.20;34.00
21495;DHT22;10909;53.590;10.054;2022-07-29T15:52:01;33.20;34.10
21495;DHT22;10909;53.590;10.054;2022-07-29T15:54:28;33.10;34.30
21495;DHT22;10909;53.590;10.054;2022-07-29T15:56:54;33.10;35.00
21495;DHT22;10909;53.590;10.054;2022-07-29T15:59:21;33.20;35.10
21495;DHT22;10909;53.590;10.054;2022-07-29T16:01:47;33.20;35.30
21495;DHT22;10909;53.590;10.054;2022-07-29T16:04:12;33.40;35.50